sensor_id;sensor_type;location;lat;lon;timestamp;temperature;humidity
9385;DHT22;4732;49.340;10.886;2023-09-18T03:04:09;15.20;99.90
9385;DHT22;4732;49.340;10.886;2023-09-18T03:06:38;15.20;99.90
9385;DHT22;4732;49.340;10.886;2023-09-18T03:09:05;15.10;99.90
9385;DHT22;4732;49.340;10.886;2023-09-18T03:11:30;15.10;99.90
9385;DHT22;4732;49.340;10.886;2023-09-18T03:13:56;15.20;99.90
9385;DHT22;4732;49.340;10.886;2023-09-18T03:16:21;15.20;99.90
9385;DHT22;4732;49.340;10.886;2023-09-18T03:18:47;15.20;99.90
9385;DHT22;4732;49.340;10.886;2023-09-18T03:21:12;15.20;99.90
9385;DHT22;4732;49.340;10.886;2023-09-18T03:23:38;15.20;99.90
9385;DHT22;4732;49.340;10.886;2023-09-18T03:26:03;15.00;99.90
9385;DHT22;4732;49.340;10.886;2023-09-18T03:28:29;14.90;99.90
9385;DHT22;4732;49.340;10.886;2023-09-18T03:30:55;14.80;99.90
9385;DHT22;4732;49.340;10.886;2023-09-18T03:33:20;14.70;99.90
9385;DHT22;4732;49.340;10.886;2023-09-18T03:35:50;14.70;99.90
9385;DHT22;4732;49.340;10.886;2023-09-18T03:38:16;14.70;99.90
9385;DHT22;4732;49.340;10.886;2023-09-18T03:40:41;14.80;99.90
9385;DHT22;4732;49.340;10.886;2023-09-18T03:43:07;14.80;99.90
9385;DHT22;4732;49.340;10.886;2023-09-18T03:45:33;14.90;99.90
9385;DHT22;4732;49.340;10.886;2023-09-18T03:47:58;15.00;99.90
9385;DHT22;4732;49.340;10.886;2023-09-18T03:50:24;15.10;99.90
9385;DHT22;4732;49.340;10.886;2023-09-18T03:52:50;15.00;99.90
9385;DHT22;4732;49.340;10.886;2023-09-18T03:55:16;15.00;99.90
9385;DHT22;4732;49.340;10.886;2023-09-18T03:57:42;15.10;99.90
9385;DHT22;4732;49.340;10.886;2023-09-18T04:00:08;15.20;99.90
9385;DHT22;4732;49.340;10.886;2023-09-18T04:02:33;15.10;99.90
9385;DHT22;4732;49.340;10.886;2023-09-18T04:05:00;15.00;99.90
9385;DHT22;4732;49.340;10.886;2023-09-18T04:07:26;14.90;99.90
9385;DHT22;4732;49.340;10.886;2023-09-18T04:09:51;14.80;99.90
9385;DHT22;4732;49.340;10.886;2023-09-18T04:12:17;14.90;99.90
9385;DHT22;4732;49.340;10.886;2023-09-18T04:14:43;15.20;99.90
9385;DHT22;4732;49.340;10.886;2023-09-18T04:17:08;15.00;99.90
9385;DHT22;4732;49.340;10.886;2023-09-18T04:19:34;15.10;99.90
9385;DHT22;4732;49.340;10.886;2023-09-18T04:21:59;15.30;99.90
9385;DHT22;4732;49.340;10.886;2023-09-18T04:24:26;15.30;99.90
9385;DHT22;4732;49.340;10.886;2023-09-18T04:26:51;15.30;99.90
9385;DHT22;4732;49.340;10.886;2023-09-18T04:29:18;15.40;99.90
9385;DHT22;4732;49.340;10.886;2023-09-18T04:31:43;15.40;99.90
9385;DHT22;4732;49.340;10.886;2023-09-18T04:34:10;15.40;99.90
9385;DHT22;4732;49.340;10.886;2023-09-18T04:36:36;15.50;99.90
9385;DHT22;4732;49.340;10.886;2023-09-18T04:39:03;15.60;99.90
9385;DHT22;4732;49.340;10.886;2023-09-18T04:41:30;15.70;99.90
9385;DHT22;4732;49.340;10.886;2023-09-18T04:43:55;15.70;99.90
9385;DHT22;4732;49.340;10.886;2023-09-18T04:46:21;15.80;99.90
9385;DHT22;4732;49.340;10.886;2023-09-18T04:48:47;15.80;99.90
9385;DHT22;4732;49.340;10.886;2023-09-18T04:51:12;15.80;99.90
9385;DHT22;4732;49.340;10.886;2023-09-18T04:53:38;15.80;99.90
9385;DHT22;4732;49.340;10.886;2023-09-18T04:56:03;15.80;99.90
9385;DHT22;4732;49.340;10.886;2023-09-18T04:58:30;15.80;99.90
9385;DHT22;4732;49.340;10.886;2023-09-18T05:00:59;15.90;99.90
9385;DHT22;4732;49.340;10.886;2023-09-18T05:03:26;15.90;99.90
9385;DHT22;4732;49.340;10.886;2023-09-18T05:05:54;15.90;99.90
9385;DHT22;4732;49.340;10.886;2023-09-18T05:08:20;16.00;99.90
9385;DHT22;4732;49.340;10.886;2023-09-18T05:10:45;16.00;99.90
9385;DHT22;4732;49.340;10.886;2023-09-18T05:13:12;16.00;99.90
9385;DHT22;4732;49.340;10.886;2023-09-18T05:15:37;15.70;99.90
9385;DHT22;4732;49.340;10.886;2023-09-18T05:18:03;15.70;99.90
9385;DHT22;4732;49.340;10.886;2023-09-18T05:20:30;15.80;99.90
9385;DHT22;4732;49.340;10.886;2023-09-18T05:22:57;15.90;99.90
9385;DHT22;4732;49.340;10.886;2023-09-18T05:25:27;16.00;99.90
9385;DHT22;4732;49.340;10.886;2023-09-18T05:27:58;16.10;99.90
9385;DHT22;4732;49.340;10.886;2023-09-18T05:30:30;16.10;99.90
9385;DHT22;4732;49.340;10.886;2023-09-18T05:32:58;16.20;99.90
9385;DHT22;4732;49.340;10.886;2023-09-18T05:35:31;16.20;99.90
9385;DHT22;4732;49.340;10.886;2023-09-18T05:37:57;16.30;99.90
9385;DHT22;4732;49.340;10.886;2023-09-18T05:40:24;16.30;99.90
9385;DHT22;4732;49.340;10.886;2023-09-18T05:42:52;16.40;99.90
9385;DHT22;4732;49.340;10.886;2023-09-18T05:45:18;16.60;99.90
9385;DHT22;4732;49.340;10.886;2023-09-18T05:47:44;16.60;99.90
9385;DHT22;4732;49.340;10.886;2023-09-18T05:50:10;16.70;99.90
9385;DHT22;4732;49.340;10.886;2023-09-18T05:52:45;16.80;99.90
9385;DHT22;4732;49.340;10.886;2023-09-18T05:55:10;16.80;99.90
9385;DHT22;4732;49.340;10.886;2023-09-18T05:57:37;16.90;99.90
9385;DHT22;4732;49.340;10.886;2023-09-18T06:00:03;17.00;99.90
9385;DHT22;4732;49.340;10.886;2023-09-18T06:02:28;17.00;99.90
9385;DHT22;4732;49.340;10.886;2023-09-18T06:04:55;17.10;99.90
9385;DHT22;4732;49.340;10.886;2023-09-18T06:07:21;17.10;99.90
9385;DHT22;4732;49.340;10.886;2023-09-18T06:09:48;17.10;99.90
9385;DHT22;4732;49.340;10.886;2023-09-18T06:12:13;17.20;99.90
9385;DHT22;4732;49.340;10.886;2023-09-18T06:14:39;17.20;99.90
9385;DHT22;4732;49.340;10.886;2023-09-18T06:17:05;17.20;99.90
9385;DHT22;4732;49.340;10.886;2023-09-18T06:19:31;17.30;99.90
9385;DHT22;4732;49.340;10.886;2023-09-18T06:21:58;17.40;99.90
9385;DHT22;4732;49.340;10.886;2023-09-18T06:24:23;17.40;99.90
9385;DHT22;4732;49.340;10.886;2023-09-18T06:26:49;17.40;99.90
9385;DHT22;4732;49.340;10.886;2023-09-18T06:29:16;17.50;99.90
9385;DHT22;4732;49.340;10.886;2023-09-18T06:31:41;17.60;99.90
9385;DHT22;4732;49.340;10.886;2023-09-18T06:34:07;17.70;99.90
9385;DHT22;4732;49.340;10.886;2023-09-18T06:36:33;17.80;99.90
9385;DHT22;4732;49.340;10.886;2023-09-18T06:38:59;17.90;99.90
9385;DHT22;4732;49.340;10.886;2023-09-18T06:41:24;17.90;99.90
9385;DHT22;4732;49.340;10.886;2023-09-18T06:43:50;18.00;99.90
9385;DHT22;4732;49.340;10.886;2023-09-18T06:46:15;18.00;99.90
9385;DHT22;4732;49.340;10.886;2023-09-18T06:48:41;18.20;99.90
9385;DHT22;4732;49.340;10.886;2023-09-18T06:51:11;18.60;99.90
9385;DHT22;4732;49.340;10.886;2023-09-18T06:53:36;18.30;99.90
9385;DHT22;4732;49.340;10.886;2023-09-18T06:56:02;18.40;99.90
9385;DHT22;4732;49.340;10.886;2023-09-18T06:58:27;18.50;99.90
9385;DHT22;4732;49.340;10.886;2023-09-18T07:00:53;18.60;99.90
9385;DHT22;4732;49.340;10.886;2023-09-18T07:03:18;18.70;99.90
9385;DHT22;4732;49.340;10.886;2023-09-18T07:05:44;18.80;99.90
9385;DHT22;4732;49.340;10.886;2023-09-18T07:08:11;18.90;99.90
9385;DHT22;4732;49.340;10.886;2023-09-18T07:10:38;19.10;99.90
9385;DHT22;4732;49.340;10.886;2023-09-18T07:13:05;19.10;99.90
9385;DHT22;4732;49.340;10.886;2023-09-18T07:15:30;19.40;99.90
9385;DHT22;4732;49.340;10.886;2023-09-18T07:17:56;20.60;99.90
9385;DHT22;4732;49.340;10.886;2023-09-18T07:20:21;19.50;99.90
9385;DHT22;4732;49.340;10.886;2023-09-18T07:22:49;19.60;99.90
9385;DHT22;4732;49.340;10.886;2023-09-18T07:25:15;19.70;99.90
9385;DHT22;4732;49.340;10.886;2023-09-18T07:27:41;19.90;99.90
9385;DHT22;4732;49.340;10.886;2023-09-18T07:30:12;20.10;99.90
9385;DHT22;4732;49.340;10.886;2023-09-18T07:32:39;20.30;99.90
9385;DHT22;4732;49.340;10.886;2023-09-18T07:35:07;20.40;99.90
9385;DHT22;4732;49.340;10.886;2023-09-18T07:37:32;20.60;99.90
9385;DHT22;4732;49.340;10.886;2023-09-18T07:39:58;20.70;99.90
9385;DHT22;4732;49.340;10.886;2023-09-18T07:42:25;20.80;99.90
9385;DHT22;4732;49.340;10.886;2023-09-18T07:44:51;20.90;99.90
9385;DHT22;4732;49.340;10.886;2023-09-18T07:47:16;21.20;99.90
9385;DHT22;4732;49.340;10.886;2023-09-18T07:49:42;21.20;99.90
9385;DHT22;4732;49.340;10.886;2023-09-18T07:52:07;21.20;99.90
9385;DHT22;4732;49.340;10.886;2023-09-18T07:54:33;21.30;99.90
9385;DHT22;4732;49.340;10.886;2023-09-18T07:56:58;21.10;99.90
9385;DHT22;4732;49.340;10.886;2023-09-18T07:59:25;21.30;99.90
9385;DHT22;4732;49.340;10.886;2023-09-18T08:01:51;21.40;99.90
9385;DHT22;4732;49.340;10.886;2023-09-18T08:04:16;21.50;99.90
9385;DHT22;4732;49.340;10.886;2023-09-18T08:06:42;21.80;99.90
9385;DHT22;4732;49.340;10.886;2023-09-18T08:09:07;22.10;99.90
9385;DHT22;4732;49.340;10.886;2023-09-18T08:11:35;22.30;99.90
9385;DHT22;4732;49.340;10.886;2023-09-18T08:14:02;22.50;99.90
9385;DHT22;4732;49.340;10.886;2023-09-18T08:16:28;22.70;99.90
9385;DHT22;4732;49.340;10.886;2023-09-18T08:18:54;22.60;99.90
9385;DHT22;4732;49.340;10.886;2023-09-18T08:21:21;22.70;99.90
9385;DHT22;4732;49.340;10.886;2023-09-18T08:23:48;22.90;99.90
9385;DHT22;4732;49.340;10.886;2023-09-18T08:26:14;22.90;99.90
9385;DHT22;4732;49.340;10.886;2023-09-18T08:28:39;23.00;99.90
9385;DHT22;4732;49.340;10.886;2023-09-18T08:31:09;23.70;99.90
9385;DHT22;4732;49.340;10.886;2023-09-18T08:33:34;22.90;99.90
9385;DHT22;4732;49.340;10.886;2023-09-18T08:36:01;23.00;99.90
9385;DHT22;4732;49.340;10.886;2023-09-18T08:38:27;23.20;99.90
9385;DHT22;4732;49.340;10.886;2023-09-18T08:40:54;23.50;99.90
9385;DHT22;4732;49.340;10.886;2023-09-18T08:43:21;23.50;99.90
9385;DHT22;4732;49.340;10.886;2023-09-18T08:45:51;23.60;99.90
9385;DHT22;4732;49.340;10.886;2023-09-18T08:48:21;23.90;99.90
9385;DHT22;4732;49.340;10.886;2023-09-18T08:50:48;24.00;99.90
9385;DHT22;4732;49.340;10.886;2023-09-18T08:53:14;24.20;99.90
9385;DHT22;4732;49.340;10.886;2023-09-18T08:55:40;24.10;99.90
9385;DHT22;4732;49.340;10.886;2023-09-18T08:58:07;24.20;99.90
9385;DHT22;4732;49.340;10.886;2023-09-18T09:00:33;24.20;99.90
9385;DHT22;4732;49.340;10.886;2023-09-18T09:03:01;23.90;99.90
9385;DHT22;4732;49.340;10.886;2023-09-18T09:05:26;23.90;99.90
9385;DHT22;4732;49.340;10.886;2023-09-18T09:07:52;23.90;99.90
9385;DHT22;4732;49.340;10.886;2023-09-18T09:10:18;23.80;99.90
9385;DHT22;4732;49.340;10.886;2023-09-18T09:12:53;23.80;99.90
9385;DHT22;4732;49.340;10.886;2023-09-18T09:15:20;24.10;99.90
9385;DHT22;4732;49.340;10.886;2023-09-18T09:17:46;24.20;99.90
9385;DHT22;4732;49.340;10.886;2023-09-18T09:20:14;24.50;99.90
9385;DHT22;4732;49.340;10.886;2023-09-18T09:22:41;24.80;99.90
9385;DHT22;4732;49.340;10.886;2023-09-18T09:25:29;24.90;99.90
9385;DHT22;4732;49.340;10.886;2023-09-18T09:27:59;25.10;99.90
9385;DHT22;4732;49.340;10.886;2023-09-18T09:30:27;25.30;99.90
9385;DHT22;4732;49.340;10.886;2023-09-18T09:32:55;25.40;99.90
9385;DHT22;4732;49.340;10.886;2023-09-18T09:35:28;25.40;99.90
9385;DHT22;4732;49.340;10.886;2023-09-18T09:37:57;25.50;99.90
9385;DHT22;4732;49.340;10.886;2023-09-18T09:40:25;25.50;99.90
9385;DHT22;4732;49.340;10.886;2023-09-18T09:42:52;25.40;99.90
9385;DHT22;4732;49.340;10.886;2023-09-18T09:45:19;25.40;99.90
9385;DHT22;4732;49.340;10.886;2023-09-18T09:47:45;25.40;99.90
9385;DHT22;4732;49.340;10.886;2023-09-18T09:50:13;25.60;99.90
9385;DHT22;4732;49.340;10.886;2023-09-18T09:52:49;25.50;99.90
9385;DHT22;4732;49.340;10.886;2023-09-18T09:55:20;25.30;99.90
9385;DHT22;4732;49.340;10.886;2023-09-18T09:58:09;25.30;99.90
9385;DHT22;4732;49.340;10.886;2023-09-18T10:00:51;25.20;99.90
9385;DHT22;4732;49.340;10.886;2023-09-18T10:03:20;25.10;99.90
9385;DHT22;4732;49.340;10.886;2023-09-18T10:05:48;24.90;99.90
9385;DHT22;4732;49.340;10.886;2023-09-18T10:08:25;24.90;99.90
9385;DHT22;4732;49.340;10.886;2023-09-18T10:11:00;24.90;99.90
9385;DHT22;4732;49.340;10.886;2023-09-18T10:13:40;24.80;99.90
9385;DHT22;4732;49.340;10.886;2023-09-18T10:16:07;24.70;99.90
9385;DHT22;4732;49.340;10.886;2023-09-18T10:19:01;24.60;99.90
9385;DHT22;4732;49.340;10.886;2023-09-18T10:21:48;24.60;99.90
9385;DHT22;4732;49.340;10.886;2023-09-18T10:24:25;24.50;99.90
9385;DHT22;4732;49.340;10.886;2023-09-18T10:26:55;24.60;99.90
9385;DHT22;4732;49.340;10.886;2023-09-18T10:29:22;24.60;99.90
9385;DHT22;4732;49.340;10.886;2023-09-18T10:31:50;24.60;99.90
9385;DHT22;4732;49.340;10.886;2023-09-18T10:34:17;24.40;99.90
9385;DHT22;4732;49.340;10.886;2023-09-18T10:36:47;24.30;99.90
9385;DHT22;4732;49.340;10.886;2023-09-18T10:39:13;24.30;99.90
9385;DHT22;4732;49.340;10.886;2023-09-18T10:41:39;24.30;99.90
9385;DHT22;4732;49.340;10.886;2023-09-18T10:44:07;24.00;99.90
9385;DHT22;4732;49.340;10.886;2023-09-18T10:46:33;24.10;99.90
9385;DHT22;4732;49.340;10.886;2023-09-18T10:49:02;23.90;99.90
9385;DHT22;4732;49.340;10.886;2023-09-18T10:51:29;23.90;99.90
9385;DHT22;4732;49.340;10.886;2023-09-18T10:53:56;23.90;99.90
9385;DHT22;4732;49.340;10.886;2023-09-18T10:56:22;23.70;99.90
9385;DHT22;4732;49.340;10.886;2023-09-18T10:58:57;23.80;99.90
9385;DHT22;4732;49.340;10.886;2023-09-18T11:01:23;23.70;99.90
9385;DHT22;4732;49.340;10.886;2023-09-18T11:03:52;23.60;99.90
9385;DHT22;4732;49.340;10.886;2023-09-18T11:06:18;23.60;99.90
9385;DHT22;4732;49.340;10.886;2023-09-18T11:08:48;23.60;99.90
9385;DHT22;4732;49.340;10.886;2023-09-18T11:11:18;23.60;99.90
9385;DHT22;4732;49.340;10.886;2023-09-18T11:13:53;23.50;99.90
9385;DHT22;4732;49.340;10.886;2023-09-18T11:21:31;23.30;99.90
9385;DHT22;4732;49.340;10.886;2023-09-18T11:24:05;23.20;99.90
9385;DHT22;4732;49.340;10.886;2023-09-18T11:26:35;23.30;99.90
9385;DHT22;4732;49.340;10.886;2023-09-18T11:29:02;23.30;99.90
9385;DHT22;4732;49.340;10.886;2023-09-18T11:31:50;23.30;99.90
9385;DHT22;4732;49.340;10.886;2023-09-18T11:34:23;23.20;99.90
9385;DHT22;4732;49.340;10.886;2023-09-18T11:36:51;23.20;99.90
9385;DHT22;4732;49.340;10.886;2023-09-18T11:39:37;23.10;99.90
9385;DHT22;4732;49.340;10.886;2023-09-18T11:42:15;23.10;99.90
9385;DHT22;4732;49.340;10.886;2023-09-18T11:44:42;23.00;99.90
9385;DHT22;4732;49.340;10.886;2023-09-18T11:47:15;22.90;99.90
9385;DHT22;4732;49.340;10.886;2023-09-18T11:49:49;22.70;99.90
9385;DHT22;4732;49.340;10.886;2023-09-18T11:52:19;22.60;99.90
9385;DHT22;4732;49.340;10.886;2023-09-18T11:54:45;22.50;99.90
9385;DHT22;4732;49.340;10.886;2023-09-18T11:57:12;22.30;99.90
9385;DHT22;4732;49.340;10.886;2023-09-18T11:59:42;22.30;99.90
9385;DHT22;4732;49.340;10.886;2023-09-18T12:02:12;22.20;99.90
9385;DHT22;4732;49.340;10.886;2023-09-18T12:04:46;22.10;99.90
9385;DHT22;4732;49.340;10.886;2023-09-18T12:07:12;21.90;99.90
9385;DHT22;4732;49.340;10.886;2023-09-18T12:09:38;21.80;99.90
9385;DHT22;4732;49.340;10.886;2023-09-18T12:12:05;21.60;99.90
9385;DHT22;4732;49.340;10.886;2023-09-18T12:14:32;21.30;99.90
9385;DHT22;4732;49.340;10.886;2023-09-18T12:17:00;21.10;99.90
9385;DHT22;4732;49.340;10.886;2023-09-18T12:19:26;20.80;99.90
9385;DHT22;4732;49.340;10.886;2023-09-18T12:21:52;20.60;99.90
9385;DHT22;4732;49.340;10.886;2023-09-18T12:24:21;20.50;99.90
9385;DHT22;4732;49.340;10.886;2023-09-18T12:26:48;20.20;99.90
9385;DHT22;4732;49.340;10.886;2023-09-18T12:29:14;20.10;99.90
9385;DHT22;4732;49.340;10.886;2023-09-18T12:31:40;19.90;99.90
9385;DHT22;4732;49.340;10.886;2023-09-18T12:34:14;20.00;99.90
9385;DHT22;4732;49.340;10.886;2023-09-18T12:36:42;19.90;99.90
9385;DHT22;4732;49.340;10.886;2023-09-18T12:39:08;19.80;99.90
9385;DHT22;4732;49.340;10.886;2023-09-18T12:41:36;19.70;99.90
9385;DHT22;4732;49.340;10.886;2023-09-18T12:44:01;19.60;99.90
9385;DHT22;4732;49.340;10.886;2023-09-18T12:46:29;19.50;99.90
9385;DHT22;4732;49.340;10.886;2023-09-18T12:48:55;19.40;99.90
9385;DHT22;4732;49.340;10.886;2023-09-18T12:51:29;19.30;99.90
9385;DHT22;4732;49.340;10.886;2023-09-18T12:54:03;19.30;99.90
9385;DHT22;4732;49.340;10.886;2023-09-18T12:56:32;19.20;99.90
9385;DHT22;4732;49.340;10.886;2023-09-18T12:58:58;19.20;99.90
9385;DHT22;4732;49.340;10.886;2023-09-18T13:01:24;19.20;99.90
9385;DHT22;4732;49.340;10.886;2023-09-18T13:03:54;19.20;99.90
9385;DHT22;4732;49.340;10.886;2023-09-18T13:06:20;19.10;99.90
9385;DHT22;4732;49.340;10.886;2023-09-18T13:08:47;19.10;99.90
9385;DHT22;4732;49.340;10.886;2023-09-18T13:11:13;19.00;99.90
9385;DHT22;4732;49.340;10.886;2023-09-18T13:13:42;19.00;99.90
9385;DHT22;4732;49.340;10.886;2023-09-18T13:16:09;19.00;99.90
9385;DHT22;4732;49.340;10.886;2023-09-18T13:18:35;18.90;99.90
9385;DHT22;4732;49.340;10.886;2023-09-18T13:21:09;18.90;99.90
9385;DHT22;4732;49.340;10.886;2023-09-18T13:23:36;18.90;99.90
9385;DHT22;4732;49.340;10.886;2023-09-18T13:26:06;18.80;99.90
9385;DHT22;4732;49.340;10.886;2023-09-18T13:28:35;18.80;99.90
9385;DHT22;4732;49.340;10.886;2023-09-18T13:31:04;18.90;99.90
9385;DHT22;4732;49.340;10.886;2023-09-18T13:33:37;18.80;99.90
9385;DHT22;4732;49.340;10.886;2023-09-18T13:36:03;18.90;99.90
9385;DHT22;4732;49.340;10.886;2023-09-18T13:38:31;18.70;99.90
9385;DHT22;4732;49.340;10.886;2023-09-18T13:40:57;18.70;99.90
9385;DHT22;4732;49.340;10.886;2023-09-18T13:43:22;18.70;99.90
9385;DHT22;4732;49.340;10.886;2023-09-18T13:45:48;18.60;99.90
9385;DHT22;4732;49.340;10.886;2023-09-18T13:48:18;18.60;99.90
9385;DHT22;4732;49.340;10.886;2023-09-18T13:50:44;18.60;99.90
9385;DHT22;4732;49.340;10.886;2023-09-18T13:53:10;18.60;99.90
9385;DHT22;4732;49.340;10.886;2023-09-18T13:55:35;18.50;99.90
9385;DHT22;4732;49.340;10.886;2023-09-18T13:58:01;18.40;99.90
9385;DHT22;4732;49.340;10.886;2023-09-18T14:00:28;18.50;99.90
9385;DHT22;4732;49.340;10.886;2023-09-18T14:02:54;18.50;99.90
9385;DHT22;4732;49.340;10.886;2023-09-18T14:05:19;18.50;99.90
9385;DHT22;4732;49.340;10.886;2023-09-18T14:07:45;18.50;99.90
9385;DHT22;4732;49.340;10.886;2023-09-18T14:10:11;18.60;99.90
9385;DHT22;4732;49.340;10.886;2023-09-18T14:12:37;18.60;99.90
9385;DHT22;4732;49.340;10.886;2023-09-18T14:15:05;18.60;99.90
9385;DHT22;4732;49.340;10.886;2023-09-18T14:17:30;18.50;99.90
9385;DHT22;4732;49.340;10.886;2023-09-18T14:19:56;18.40;99.90
9385;DHT22;4732;49.340;10.886;2023-09-18T14:22:24;18.30;99.90
9385;DHT22;4732;49.340;10.886;2023-09-18T14:24:54;18.40;99.90
9385;DHT22;4732;49.340;10.886;2023-09-18T14:27:19;18.30;99.90
9385;DHT22;4732;49.340;10.886;2023-09-18T14:29:44;18.30;99.90
9385;DHT22;4732;49.340;10.886;2023-09-18T14:32:10;18.30;99.90
9385;DHT22;4732;49.340;10.886;2023-09-18T14:34:36;18.30;99.90
9385;DHT22;4732;49.340;10.886;2023-09-18T14:37:02;18.40;99.90
9385;DHT22;4732;49.340;10.886;2023-09-18T14:39:33;18.40;99.90
9385;DHT22;4732;49.340;10.886;2023-09-18T14:41:59;18.40;99.90
9385;DHT22;4732;49.340;10.886;2023-09-18T14:44:25;18.50;99.90
9385;DHT22;4732;49.340;10.886;2023-09-18T14:46:52;18.60;99.90
9385;DHT22;4732;49.340;10.886;2023-09-18T14:49:18;18.50;99.90
9385;DHT22;4732;49.340;10.886;2023-09-18T14:51:43;18.50;99.90
9385;DHT22;4732;49.340;10.886;2023-09-18T14:54:09;18.60;99.90
9385;DHT22;4732;49.340;10.886;2023-09-18T14:56:34;18.50;99.90
9385;DHT22;4732;49.340;10.886;2023-09-18T14:59:02;18.50;99.90
9385;DHT22;4732;49.340;10.886;2023-09-18T15:01:27;18.50;99.90
9385;DHT22;4732;49.340;10.886;2023-09-18T15:03:53;18.50;99.90
9385;DHT22;4732;49.340;10.886;2023-09-18T15:06:20;18.50;99.90
9385;DHT22;4732;49.340;10.886;2023-09-18T15:08:46;18.40;99.90
9385;DHT22;4732;49.340;10.886;2023-09-18T15:11:11;18.50;99.90
9385;DHT22;4732;49.340;10.886;2023-09-18T15:13:38;18.40;99.90
9385;DHT22;4732;49.340;10.886;2023-09-18T15:16:04;18.50;99.90
9385;DHT22;4732;49.340;10.886;2023-09-18T15:18:30;18.50;99.90
9385;DHT22;4732;49.340;10.886;2023-09-18T15:20:56;18.40;99.90
9385;DHT22;4732;49.340;10.886;2023-09-18T15:23:22;18.40;99.90
9385;DHT22;4732;49.340;10.886;2023-09-18T15:25:49;18.40;99.90
9385;DHT22;4732;49.340;10.886;2023-09-18T15:28:16;18.40;99.90
9385;DHT22;4732;49.340;10.886;2023-09-18T15:30:43;18.40;99.90
9385;DHT22;4732;49.340;10.886;2023-09-18T15:33:08;18.40;99.90
9385;DHT22;4732;49.340;10.886;2023-09-18T15:35:34;18.40;99.90
9385;DHT22;4732;49.340;10.886;2023-09-18T15:37:59;18.50;99.90
9385;DHT22;4732;49.340;10.886;2023-09-18T15:40:26;18.50;99.90
9385;DHT22;4732;49.340;10.886;2023-09-18T15:42:52;18.50;99.90
9385;DHT22;4732;49.340;10.886;2023-09-18T15:45:18;18.50;99.90
9385;DHT22;4732;49.340;10.886;2023-09-18T15:47:44;18.50;99.90
9385;DHT22;4732;49.340;10.886;2023-09-18T15:50:11;18.50;99.90
9385;DHT22;4732;49.340;10.886;2023-09-18T15:52:37;18.60;99.90
9385;DHT22;4732;49.340;10.886;2023-09-18T15:55:04;18.60;99.90
9385;DHT22;4732;49.340;10.886;2023-09-18T15:57:31;18.50;99.90
9385;DHT22;4732;49.340;10.886;2023-09-18T15:59:58;18.70;99.90
9385;DHT22;4732;49.340;10.886;2023-09-18T16:02:23;18.60;99.90
9385;DHT22;4732;49.340;10.886;2023-09-18T16:04:49;18.60;99.90
9385;DHT22;4732;49.340;10.886;2023-09-18T16:07:15;18.60;99.90
9385;DHT22;4732;49.340;10.886;2023-09-18T16:09:41;18.70;99.90
9385;DHT22;4732;49.340;10.886;2023-09-18T16:12:07;18.70;99.90
9385;DHT22;4732;49.340;10.886;2023-09-18T16:14:33;18.60;99.90
9385;DHT22;4732;49.340;10.886;2023-09-18T16:16:59;18.70;99.90
9385;DHT22;4732;49.340;10.886;2023-09-18T16:19:32;18.80;99.90
9385;DHT22;4732;49.340;10.886;2023-09-18T16:21:58;18.90;99.90
9385;DHT22;4732;49.340;10.886;2023-09-18T16:24:24;18.90;99.90
9385;DHT22;4732;49.340;10.886;2023-09-18T16:26:50;19.00;99.90
9385;DHT22;4732;49.340;10.886;2023-09-18T16:29:16;19.20;99.90
9385;DHT22;4732;49.340;10.886;2023-09-18T16:31:42;19.40;99.90
9385;DHT22;4732;49.340;10.886;2023-09-18T16:34:07;19.80;99.90
9385;DHT22;4732;49.340;10.886;2023-09-18T16:36:34;19.80;99.90
9385;DHT22;4732;49.340;10.886;2023-09-18T16:38:59;19.50;99.90
9385;DHT22;4732;49.340;10.886;2023-09-18T16:41:25;19.40;99.90
9385;DHT22;4732;49.340;10.886;2023-09-18T16:43:51;19.50;99.90
9385;DHT22;4732;49.340;10.886;2023-09-18T16:46:17;19.30;99.90
9385;DHT22;4732;49.340;10.886;2023-09-18T16:48:42;19.00;99.90
9385;DHT22;4732;49.340;10.886;2023-09-18T16:51:09;19.00;99.90
9385;DHT22;4732;49.340;10.886;2023-09-18T16:53:35;19.00;99.90
9385;DHT22;4732;49.340;10.886;2023-09-18T16:56:00;18.90;99.90
9385;DHT22;4732;49.340;10.886;2023-09-18T16:58:26;18.90;99.90
9385;DHT22;4732;49.340;10.886;2023-09-18T17:00:51;18.80;99.90
9385;DHT22;4732;49.340;10.886;2023-09-18T17:03:19;18.80;99.90
9385;DHT22;4732;49.340;10.886;2023-09-18T17:05:44;18.70;99.90
9385;DHT22;4732;49.340;10.886;2023-09-18T17:08:10;18.60;99.90
9385;DHT22;4732;49.340;10.886;2023-09-18T17:10:36;18.60;99.90
9385;DHT22;4732;49.340;10.886;2023-09-18T17:13:02;18.50;99.90
9385;DHT22;4732;49.340;10.886;2023-09-18T17:15:30;18.40;99.90
9385;DHT22;4732;49.340;10.886;2023-09-18T17:17:55;18.30;99.90
9385;DHT22;4732;49.340;10.886;2023-09-18T17:20:26;18.20;99.90
9385;DHT22;4732;49.340;10.886;2023-09-18T17:22:51;18.20;99.90
9385;DHT22;4732;49.340;10.886;2023-09-18T17:25:17;18.10;99.90
9385;DHT22;4732;49.340;10.886;2023-09-18T17:27:42;18.10;99.90
9385;DHT22;4732;49.340;10.886;2023-09-18T17:30:08;18.30;99.90
9385;DHT22;4732;49.340;10.886;2023-09-18T17:32:34;18.00;99.90
9385;DHT22;4732;49.340;10.886;2023-09-18T17:35:01;18.00;99.90
9385;DHT22;4732;49.340;10.886;2023-09-18T17:37:26;17.90;99.90
9385;DHT22;4732;49.340;10.886;2023-09-18T17:39:52;17.90;99.90
9385;DHT22;4732;49.340;10.886;2023-09-18T17:42:18;17.80;99.90
9385;DHT22;4732;49.340;10.886;2023-09-18T17:44:43;17.80;99.90
9385;DHT22;4732;49.340;10.886;2023-09-18T17:47:09;17.70;99.90
9385;DHT22;4732;49.340;10.886;2023-09-18T17:49:35;17.60;99.90
9385;DHT22;4732;49.340;10.886;2023-09-18T17:52:01;17.50;99.90
9385;DHT22;4732;49.340;10.886;2023-09-18T17:54:31;17.40;99.90
9385;DHT22;4732;49.340;10.886;2023-09-18T17:56:56;17.40;99.90
9385;DHT22;4732;49.340;10.886;2023-09-18T17:59:22;17.30;99.90
9385;DHT22;4732;49.340;10.886;2023-09-18T18:01:47;17.30;99.90
9385;DHT22;4732;49.340;10.886;2023-09-18T18:04:13;17.30;99.90
9385;DHT22;4732;49.340;10.886;2023-09-18T18:06:39;17.20;99.90
9385;DHT22;4732;49.340;10.886;2023-09-18T18:09:05;17.20;99.90
9385;DHT22;4732;49.340;10.886;2023-09-18T18:11:30;17.20;99.90
9385;DHT22;4732;49.340;10.886;2023-09-18T18:13:56;17.20;99.90
9385;DHT22;4732;49.340;10.886;2023-09-18T18:16:22;17.10;99.90
9385;DHT22;4732;49.340;10.886;2023-09-18T18:18:48;17.10;99.90
9385;DHT22;4732;49.340;10.886;2023-09-18T18:21:13;17.10;99.90
9385;DHT22;4732;49.340;10.886;2023-09-18T18:23:39;17.10;99.90
9385;DHT22;4732;49.340;10.886;2023-09-18T18:26:08;17.00;99.90
9385;DHT22;4732;49.340;10.886;2023-09-18T18:28:34;17.00;99.90
9385;DHT22;4732;49.340;10.886;2023-09-18T18:31:01;17.00;99.90
9385;DHT22;4732;49.340;10.886;2023-09-18T18:33:26;17.00;99.90
9385;DHT22;4732;49.340;10.886;2023-09-18T18:35:53;17.00;99.90
9385;DHT22;4732;49.340;10.886;2023-09-18T18:38:20;17.00;99.90
9385;DHT22;4732;49.340;10.886;2023-09-18T18:40:59;17.00;99.90
9385;DHT22;4732;49.340;10.886;2023-09-18T18:43:26;17.00;99.90
9385;DHT22;4732;49.340;10.886;2023-09-18T18:45:53;17.00;99.90
9385;DHT22;4732;49.340;10.886;2023-09-18T18:48:20;17.00;99.90
9385;DHT22;4732;49.340;10.886;2023-09-18T18:50:45;17.00;99.90
9385;DHT22;4732;49.340;10.886;2023-09-18T18:53:12;16.90;99.90